Time;durP1;ratioP1;P1;durP2;ratioP2;P2;SDS_P1;SDS_P2;PMS_P1;PMS_P2;Temp;Humidity;BMP_temperature;BMP_pressure;BME280_temperature;BME280_humidity;BME280_pressure;Samples;Min_cycle;Max_cycle;Signal;HPM_P1;HPM_P2
2024/01/16 00:00:14;;;;;;;70.03;65.43;;;1.90;99.90;;;;;;5052324;28;20025;-70
2024/01/16 00:02:40;;;;;;;63.80;58.80;;;1.80;99.90;;;;;;5053323;28;20044;-70
2024/01/16 00:05:06;;;;;;;65.53;61.03;;;2.00;99.90;;;;;;5052494;28;20032;-71
2024/01/16 00:07:34;;;;;;;63.23;58.47;;;2.10;99.90;;;;;;5051126;28;20491;-71
2024/01/16 00:10:00;;;;;;;66.80;62.23;;;2.20;99.90;;;;;;5052847;28;20048;-71
2024/01/16 00:12:26;;;;;;;63.00;58.40;;;1.90;99.90;;;;;;5052548;28;20158;-71
2024/01/16 00:14:52;;;;;;;62.80;58.37;;;1.80;99.90;;;;;;5053149;28;20036;-71
2024/01/16 00:17:18;;;;;;;65.23;60.83;;;1.80;99.90;;;;;;5034951;28;20408;-70
2024/01/16 00:19:44;;;;;;;110.67;104.10;;;1.90;99.90;;;;;;5041807;28;20037;-71
2024/01/16 00:22:11;;;;;;;109.07;102.20;;;2.00;99.90;;;;;;5052569;28;20495;-71
2024/01/16 00:24:37;;;;;;;116.43;109.43;;;2.10;99.90;;;;;;5052954;28;20029;-70
2024/01/16 00:27:03;;;;;;;88.63;83.10;;;2.10;99.90;;;;;;5052587;28;20029;-71
2024/01/16 00:29:30;;;;;;;87.03;81.27;;;1.80;99.90;;;;;;5052643;28;20044;-70
2024/01/16 00:31:56;;;;;;;87.93;82.33;;;1.70;99.90;;;;;;5052228;28;20403;-71
2024/01/16 00:34:22;;;;;;;89.07;83.43;;;1.80;99.90;;;;;;5052573;28;20033;-71
2024/01/16 00:36:48;;;;;;;103.33;96.93;;;1.90;99.90;;;;;;5052452;28;20041;-70
2024/01/16 00:39:14;;;;;;;109.47;102.90;;;2.00;99.90;;;;;;5049746;28;20048;-70
2024/01/16 00:41:40;;;;;;;84.23;78.97;;;2.10;99.90;;;;;;5048564;28;20052;-71
2024/01/16 00:44:07;;;;;;;102.43;95.73;;;2.00;99.90;;;;;;5052341;28;20053;-70
2024/01/16 00:46:33;;;;;;;96.97;90.87;;;1.90;99.90;;;;;;5051279;28;20041;-71
2024/01/16 00:49:00;;;;;;;103.00;96.43;;;2.00;99.90;;;;;;5052215;28;20391;-71
2024/01/16 00:51:26;;;;;;;117.67;110.67;;;2.10;99.90;;;;;;5052229;28;20065;-70
2024/01/16 00:53:52;;;;;;;96.90;90.90;;;2.20;99.90;;;;;;5048316;28;20033;-71
2024/01/16 00:56:18;;;;;;;86.00;80.70;;;2.20;99.90;;;;;;5051381;28;20025;-70
2024/01/16 00:58:44;;;;;;;81.63;76.27;;;2.20;99.90;;;;;;5049963;28;20039;-71
2024/01/16 01:01:10;;;;;;;95.80;89.53;;;2.20;99.90;;;;;;5051305;28;20399;-71
2024/01/16 01:03:36;;;;;;;95.27;89.20;;;2.20;99.90;;;;;;5051819;28;20028;-71
2024/01/16 01:06:02;;;;;;;84.47;79.07;;;2.20;99.90;;;;;;5051304;28;20063;-70
2024/01/16 01:08:28;;;;;;;83.70;78.33;;;2.20;99.90;;;;;;5050754;28;20037;-70
2024/01/16 01:10:54;;;;;;;83.40;78.30;;;2.00;99.90;;;;;;5050566;28;20033;-71
2024/01/16 01:13:20;;;;;;;74.03;69.13;;;1.70;99.90;;;;;;5052288;28;20482;-71
2024/01/16 01:15:47;;;;;;;73.57;68.77;;;1.70;99.90;;;;;;5050940;28;20029;-71
2024/01/16 01:18:13;;;;;;;76.23;70.80;;;1.80;99.90;;;;;;5048784;28;20025;-70
2024/01/16 01:20:39;;;;;;;87.17;80.97;;;1.50;99.90;;;;;;5051534;28;20021;-70
2024/01/16 01:23:05;;;;;;;89.80;83.97;;;1.30;99.90;;;;;;5051334;28;20043;-70
2024/01/16 01:25:31;;;;;;;74.17;69.03;;;1.50;99.90;;;;;;5051287;28;20029;-71
2024/01/16 01:27:57;;;;;;;86.27;80.57;;;1.50;99.90;;;;;;5052194;28;20383;-71
2024/01/16 01:30:23;;;;;;;74.67;69.63;;;1.50;99.90;;;;;;5051001;28;20032;-70
2024/01/16 01:32:49;;;;;;;87.63;81.67;;;1.40;99.90;;;;;;5048754;28;20384;-71
2024/01/16 01:35:17;;;;;;;104.57;97.70;;;1.20;99.90;;;;;;5050681;28;20037;-70
2024/01/16 01:37:43;;;;;;;104.77;97.53;;;1.30;99.90;;;;;;5048677;28;20029;-71
2024/01/16 01:40:12;;;;;;;118.67;111.57;;;1.40;99.90;;;;;;5051765;28;20028;-71
2024/01/16 01:42:40;;;;;;;106.93;100.40;;;1.40;99.90;;;;;;5041822;28;20041;-70
2024/01/16 01:45:07;;;;;;;102.47;95.77;;;1.40;99.90;;;;;;5051224;28;20084;-71
2024/01/16 01:47:33;;;;;;;98.90;92.60;;;1.30;99.90;;;;;;5049776;28;20047;-70
2024/01/16 01:49:59;;;;;;;119.37;111.57;;;1.30;99.90;;;;;;5051547;28;20028;-71
2024/01/16 01:52:25;;;;;;;109.07;102.23;;;1.30;99.90;;;;;;5051382;28;20040;-71
2024/01/16 01:54:51;;;;;;;101.83;95.23;;;1.40;99.90;;;;;;5050543;28;20028;-71
2024/01/16 01:57:17;;;;;;;88.37;82.60;;;1.40;99.90;;;;;;5049557;28;20036;-70
2024/01/16 01:59:43;;;;;;;68.63;64.13;;;1.20;99.90;;;;;;5050984;28;20029;-70
2024/01/16 02:02:10;;;;;;;87.53;81.93;;;0.90;99.90;;;;;;5050484;28;20044;-71
2024/01/16 02:04:36;;;;;;;76.03;71.03;;;0.70;99.90;;;;;;5033808;28;20454;-70
2024/01/16 02:07:03;;;;;;;73.73;68.43;;;0.90;99.90;;;;;;5049829;28;20044;-70
2024/01/16 02:09:30;;;;;;;99.03;92.93;;;1.10;99.90;;;;;;5051175;28;20045;-71
2024/01/16 02:11:56;;;;;;;109.57;102.87;;;1.30;99.90;;;;;;5048405;28;20055;-70
2024/01/16 02:14:22;;;;;;;102.47;96.27;;;1.30;99.90;;;;;;5050004;28;20041;-71
2024/01/16 02:16:48;;;;;;;86.53;81.10;;;1.30;99.90;;;;;;5050118;28;20037;-71
2024/01/16 02:19:14;;;;;;;92.33;86.60;;;1.40;99.90;;;;;;5047425;28;20033;-71
2024/01/16 02:21:49;;;;;;;88.10;82.30;;;1.30;99.90;;;;;;5050020;28;20483;-70
2024/01/16 02:24:16;;;;;;;83.27;77.90;;;1.20;99.90;;;;;;5053414;28;20045;-70
2024/01/16 02:26:42;;;;;;;71.10;66.30;;;1.00;99.90;;;;;;5054257;28;20056;-70
2024/01/16 02:29:09;;;;;;;75.73;70.90;;;1.10;99.90;;;;;;5052938;28;20037;-70
2024/01/16 02:31:35;;;;;;;74.77;70.00;;;1.00;99.90;;;;;;5054019;28;20041;-70
2024/01/16 02:34:01;;;;;;;81.17;76.20;;;1.10;99.90;;;;;;5055009;28;20032;-70
2024/01/16 02:36:28;;;;;;;78.93;73.83;;;1.20;99.90;;;;;;5053665;28;20037;-70
2024/01/16 02:38:55;;;;;;;63.07;58.67;;;1.10;99.90;;;;;;5053500;28;20044;-71
2024/01/16 02:41:21;;;;;;;81.23;76.17;;;1.20;99.90;;;;;;5051652;28;20036;-70
2024/01/16 02:43:47;;;;;;;84.80;79.37;;;1.20;99.90;;;;;;5053964;28;20045;-71
2024/01/16 02:46:15;;;;;;;85.53;80.13;;;1.10;99.90;;;;;;5043971;28;20570;-70
2024/01/16 02:48:42;;;;;;;87.83;82.40;;;1.10;99.90;;;;;;5035173;28;20025;-71
2024/01/16 02:51:08;;;;;;;86.10;80.33;;;1.10;99.90;;;;;;5038454;28;20033;-70
2024/01/16 02:53:34;;;;;;;74.90;70.13;;;1.20;99.90;;;;;;5053400;28;20033;-71
2024/01/16 02:56:00;;;;;;;76.93;71.83;;;1.20;99.90;;;;;;5053270;28;20040;-70
2024/01/16 02:58:27;;;;;;;93.60;87.67;;;1.30;99.90;;;;;;5054139;28;20403;-70
2024/01/16 03:00:53;;;;;;;70.43;65.57;;;1.30;99.90;;;;;;5051596;28;20033;-70
2024/01/16 03:03:20;;;;;;;86.70;81.10;;;1.20;99.90;;;;;;5045865;28;20480;-70
2024/01/16 03:05:46;;;;;;;68.20;63.60;;;1.10;99.90;;;;;;5041808;28;20024;-70
2024/01/16 03:08:13;;;;;;;74.00;69.23;;;1.10;99.90;;;;;;5040296;28;20029;-70
2024/01/16 03:10:39;;;;;;;70.43;65.43;;;1.00;99.90;;;;;;5051618;28;20397;-70
2024/01/16 03:13:05;;;;;;;57.77;53.37;;;1.10;99.90;;;;;;5034559;28;20028;-70
2024/01/16 03:15:31;;;;;;;72.73;68.03;;;1.20;99.90;;;;;;5046353;28;20037;-70
2024/01/16 03:17:58;;;;;;;75.33;70.43;;;1.20;99.90;;;;;;5052273;28;20029;-70
2024/01/16 03:20:24;;;;;;;78.30;73.20;;;1.20;99.90;;;;;;5052276;28;20037;-70
2024/01/16 03:22:50;;;;;;;77.33;72.53;;;1.20;99.90;;;;;;5051903;28;20057;-71
2024/01/16 03:25:16;;;;;;;59.43;55.60;;;1.20;99.90;;;;;;5052583;28;20454;-70
2024/01/16 03:27:43;;;;;;;61.67;57.40;;;1.20;99.90;;;;;;5051847;28;20487;-70
2024/01/16 03:30:10;;;;;;;49.87;46.33;;;1.20;99.90;;;;;;5050476;28;20068;-70
2024/01/16 03:32:36;;;;;;;99.40;93.47;;;1.20;99.90;;;;;;5051019;28;20041;-70
2024/01/16 03:35:03;;;;;;;89.07;83.57;;;1.30;99.90;;;;;;5051366;28;20032;-70
2024/01/16 03:37:29;;;;;;;91.60;86.17;;;1.30;99.90;;;;;;5051732;28;20033;-70
2024/01/16 03:39:56;;;;;;;80.63;75.17;;;1.30;99.90;;;;;;5053453;28;20029;-70
2024/01/16 03:42:23;;;;;;;68.10;63.90;;;1.30;99.90;;;;;;5052300;28;20048;-70
2024/01/16 03:44:49;;;;;;;51.90;48.20;;;1.20;99.90;;;;;;5051403;28;20032;-71
2024/01/16 03:47:15;;;;;;;74.43;69.57;;;1.00;99.90;;;;;;5050933;28;20045;-70
2024/01/16 03:49:42;;;;;;;65.67;61.27;;;0.70;99.90;;;;;;5053461;28;20021;-70
2024/01/16 03:52:08;;;;;;;53.33;49.50;;;0.70;99.90;;;;;;5053430;28;20031;-70
2024/01/16 03:54:34;;;;;;;55.20;51.37;;;0.70;99.90;;;;;;5052627;28;20056;-70
2024/01/16 03:57:00;;;;;;;62.83;58.33;;;0.70;99.90;;;;;;5052872;28;20040;-70
2024/01/16 03:59:26;;;;;;;61.67;57.17;;;0.40;99.90;;;;;;5053686;28;20056;-71
2024/01/16 04:01:52;;;;;;;54.67;50.67;;;0.30;99.90;;;;;;5052567;28;20041;-70
2024/01/16 04:04:18;;;;;;;81.87;76.17;;;0.40;99.90;;;;;;5052375;28;20389;-70
2024/01/16 04:06:46;;;;;;;87.07;80.93;;;0.60;99.90;;;;;;5048969;28;20947;-70
2024/01/16 04:09:13;;;;;;;109.63;102.57;;;0.70;99.90;;;;;;5053141;28;20032;-70
2024/01/16 04:11:39;;;;;;;101.30;94.77;;;0.70;99.90;;;;;;5051890;28;20056;-70
2024/01/16 04:14:05;;;;;;;127.77;120.13;;;0.80;99.90;;;;;;5052814;28;20071;-70
2024/01/16 04:16:31;;;;;;;212.87;200.40;;;0.70;99.90;;;;;;5052460;28;20029;-70
2024/01/16 04:18:57;;;;;;;181.77;171.10;;;0.70;99.90;;;;;;5049687;28;20037;-70
2024/01/16 04:21:23;;;;;;;111.80;105.27;;;0.90;99.90;;;;;;5052370;28;20037;-70
2024/01/16 04:23:50;;;;;;;170.00;160.00;;;1.00;99.90;;;;;;5051140;28;20081;-70
2024/01/16 04:26:16;;;;;;;240.20;226.27;;;1.00;99.90;;;;;;5043153;28;20041;-70
2024/01/16 04:28:42;;;;;;;189.60;178.77;;;0.90;99.90;;;;;;5046587;28;20032;-70
2024/01/16 04:31:09;;;;;;;135.33;127.03;;;0.90;99.90;;;;;;5050469;28;20391;-70
2024/01/16 04:33:35;;;;;;;246.77;232.80;;;0.80;99.90;;;;;;5052303;28;20036;-70
2024/01/16 04:36:01;;;;;;;231.93;218.47;;;0.80;99.90;;;;;;5052446;28;20051;-70
2024/01/16 04:38:27;;;;;;;261.83;246.80;;;0.70;99.90;;;;;;5052331;28;20033;-70
2024/01/16 04:40:53;;;;;;;269.90;254.73;;;0.60;99.90;;;;;;5052185;28;20135;-70
2024/01/16 04:43:19;;;;;;;252.50;238.23;;;0.70;99.90;;;;;;5052694;28;20052;-70
2024/01/16 04:45:46;;;;;;;269.07;253.80;;;0.70;99.90;;;;;;5051892;28;20055;-70
2024/01/16 04:48:12;;;;;;;227.90;214.93;;;0.60;99.90;;;;;;5051576;28;20041;-70
2024/01/16 04:50:38;;;;;;;253.10;238.83;;;0.60;99.90;;;;;;5052161;28;20380;-70
2024/01/16 04:53:04;;;;;;;245.63;232.27;;;0.60;99.90;;;;;;5051391;28;20036;-70
2024/01/16 04:55:30;;;;;;;278.60;262.63;;;0.60;99.90;;;;;;5051913;28;20503;-70
2024/01/16 04:57:56;;;;;;;523.63;488.87;;;0.80;99.90;;;;;;5052384;28;20040;-70
2024/01/16 05:00:23;;;;;;;233.90;220.73;;;0.90;99.90;;;;;;5051662;28;20397;-70
2024/01/16 05:02:49;;;;;;;184.43;173.73;;;1.00;99.90;;;;;;5052632;28;20033;-70
2024/01/16 05:05:15;;;;;;;153.93;145.23;;;0.80;99.90;;;;;;5052151;28;20032;-70
2024/01/16 05:07:41;;;;;;;98.27;92.57;;;0.70;99.90;;;;;;5052142;28;20499;-70
2024/01/16 05:10:10;;;;;;;138.40;130.40;;;0.60;99.90;;;;;;5051815;28;20517;-70
2024/01/16 05:12:36;;;;;;;201.27;190.00;;;0.50;99.90;;;;;;5051230;28;20518;-70
2024/01/16 05:15:02;;;;;;;215.50;203.60;;;0.60;99.90;;;;;;5050245;28;20032;-70
2024/01/16 05:17:28;;;;;;;257.43;242.57;;;0.70;99.90;;;;;;5051659;28;20033;-70
2024/01/16 05:19:55;;;;;;;257.83;243.27;;;0.80;99.90;;;;;;5051939;28;20036;-70
2024/01/16 05:22:21;;;;;;;240.83;227.43;;;0.70;99.90;;;;;;5051609;28;20037;-70
2024/01/16 05:24:47;;;;;;;238.63;225.33;;;0.60;99.90;;;;;;5051885;28;20040;-70
2024/01/16 05:27:14;;;;;;;259.70;244.37;;;0.60;99.90;;;;;;5032985;28;20045;-70
2024/01/16 05:29:42;;;;;;;248.37;234.30;;;0.60;99.90;;;;;;5035095;28;20044;-70
2024/01/16 05:32:09;;;;;;;266.33;250.83;;;0.50;99.90;;;;;;5050901;28;20040;-70
2024/01/16 05:34:35;;;;;;;222.53;209.87;;;0.50;99.90;;;;;;5051787;28;20391;-70
2024/01/16 05:37:01;;;;;;;70.57;66.10;;;0.60;99.90;;;;;;5051411;28;20044;-72
2024/01/16 05:39:27;;;;;;;73.57;68.93;;;0.40;99.90;;;;;;5051127;28;20040;-70
2024/01/16 05:41:53;;;;;;;70.80;66.17;;;0.20;99.90;;;;;;5051859;28;20033;-70
2024/01/16 05:44:19;;;;;;;152.57;143.57;;;0.10;99.90;;;;;;5051283;28;20064;-70
2024/01/16 05:46:45;;;;;;;173.87;164.20;;;0.20;99.90;;;;;;5050970;28;20044;-70
2024/01/16 05:49:11;;;;;;;231.73;218.87;;;0.30;99.90;;;;;;5049366;28;20029;-70
2024/01/16 05:51:37;;;;;;;257.23;242.50;;;0.30;99.90;;;;;;5044558;28;20029;-70
2024/01/16 05:54:03;;;;;;;284.00;267.70;;;0.40;99.90;;;;;;5050960;28;20396;-70
2024/01/16 05:56:31;;;;;;;283.70;267.57;;;0.40;99.90;;;;;;5040334;28;20033;-70
2024/01/16 05:58:57;;;;;;;308.33;290.60;;;0.50;99.90;;;;;;5033487;28;20625;-70
2024/01/16 06:01:23;;;;;;;264.63;249.67;;;0.50;99.90;;;;;;5050625;28;20037;-70
2024/01/16 06:03:50;;;;;;;295.70;278.73;;;0.40;99.90;;;;;;5051627;28;20476;-70
2024/01/16 06:06:16;;;;;;;307.83;290.50;;;0.50;99.90;;;;;;5050598;28;20033;-73
2024/01/16 06:08:42;;;;;;;330.00;311.03;;;0.50;99.90;;;;;;5050198;28;20029;-70
2024/01/16 06:11:08;;;;;;;291.73;275.13;;;0.40;99.90;;;;;;5051059;28;20368;-70
2024/01/16 06:13:34;;;;;;;323.13;304.73;;;0.40;99.90;;;;;;5050558;28;20025;-70
2024/01/16 06:16:00;;;;;;;295.33;278.63;;;0.50;99.90;;;;;;5044105;28;20026;-71
2024/01/16 06:18:26;;;;;;;247.47;233.67;;;0.40;99.90;;;;;;5031814;28;20033;-70
2024/01/16 06:20:52;;;;;;;223.17;210.63;;;0.50;99.90;;;;;;5050062;28;20029;-70
2024/01/16 06:23:18;;;;;;;188.00;177.40;;;0.50;99.90;;;;;;5051527;28;20040;-71
2024/01/16 06:25:45;;;;;;;222.13;210.10;;;0.40;99.90;;;;;;5046011;28;20040;-72
2024/01/16 06:28:11;;;;;;;151.13;142.87;;;0.40;99.90;;;;;;5031150;28;20037;-70
2024/01/16 06:30:37;;;;;;;169.00;159.47;;;0.40;99.90;;;;;;5030548;28;20041;-70
2024/01/16 06:33:04;;;;;;;78.27;73.23;;;0.40;99.90;;;;;;5031594;28;20391;-70
2024/01/16 06:35:30;;;;;;;198.20;186.70;;;0.40;99.90;;;;;;5030814;28;20432;-70
2024/01/16 06:37:56;;;;;;;170.27;160.10;;;0.30;99.90;;;;;;5031241;28;20037;-70
2024/01/16 06:40:22;;;;;;;128.80;120.90;;;0.40;99.90;;;;;;5031303;28;20026;-71
2024/01/16 06:42:48;;;;;;;107.37;100.53;;;0.50;99.90;;;;;;5031076;28;20054;-70
2024/01/16 06:45:15;;;;;;;128.03;120.27;;;0.60;99.90;;;;;;5030883;28;20512;-70
2024/01/16 06:47:41;;;;;;;116.50;109.33;;;0.50;99.90;;;;;;5031845;28;20041;-70
2024/01/16 06:50:08;;;;;;;150.50;141.37;;;0.50;99.90;;;;;;5050390;28;20037;-70
2024/01/16 06:52:34;;;;;;;128.37;120.50;;;0.60;99.90;;;;;;5049615;28;20025;-70
2024/01/16 06:55:00;;;;;;;116.93;109.63;;;0.60;99.90;;;;;;5050860;28;20052;-71
2024/01/16 06:57:27;;;;;;;96.27;90.33;;;0.50;99.90;;;;;;5050845;28;20491;-70
2024/01/16 06:59:53;;;;;;;121.87;114.30;;;0.20;99.90;;;;;;5051002;28;20037;-73
2024/01/16 07:02:19;;;;;;;196.50;185.37;;;0.10;99.90;;;;;;5049699;28;20037;-70
2024/01/16 07:04:45;;;;;;;145.00;136.43;;;0.10;99.90;;;;;;5050822;28;20048;-70
2024/01/16 07:07:11;;;;;;;229.80;216.73;;;0.00;99.90;;;;;;5051005;28;20029;-70
2024/01/16 07:09:37;;;;;;;276.23;260.87;;;0.10;99.90;;;;;;5052006;28;20463;-70
2024/01/16 07:12:04;;;;;;;257.07;242.80;;;0.20;99.90;;;;;;5054192;28;20033;-71
2024/01/16 07:14:32;;;;;;;194.17;183.20;;;0.20;99.90;;;;;;5034994;28;20033;-70
2024/01/16 07:16:58;;;;;;;232.27;219.37;;;0.00;99.90;;;;;;5048780;28;20041;-70
2024/01/16 07:19:25;;;;;;;284.90;268.57;;;0.00;99.90;;;;;;5054365;28;20463;-70
2024/01/16 07:21:51;;;;;;;192.40;181.73;;;0.10;99.90;;;;;;5054453;28;20032;-70
2024/01/16 07:24:17;;;;;;;211.27;199.23;;;0.30;99.90;;;;;;5053359;28;20045;-70
2024/01/16 07:26:43;;;;;;;142.03;133.57;;;0.40;99.90;;;;;;5054356;28;20028;-70
2024/01/16 07:29:09;;;;;;;198.07;187.00;;;0.30;99.90;;;;;;5054159;28;20399;-70
2024/01/16 07:31:35;;;;;;;223.93;211.03;;;0.20;99.90;;;;;;5053996;28;20037;-70
2024/01/16 07:34:01;;;;;;;155.57;146.20;;;0.30;99.90;;;;;;5054161;28;20491;-70
2024/01/16 07:36:27;;;;;;;162.70;152.77;;;0.20;99.90;;;;;;5054353;28;20040;-70
2024/01/16 07:38:53;;;;;;;104.87;97.70;;;0.20;99.90;;;;;;5053259;28;20028;-70
2024/01/16 07:41:19;;;;;;;93.00;84.90;;;0.40;99.90;;;;;;5053951;28;20029;-70
2024/01/16 07:43:46;;;;;;;80.80;74.70;;;0.40;99.90;;;;;;5053650;28;20049;-70
2024/01/16 07:46:12;;;;;;;95.07;88.90;;;0.50;99.90;;;;;;5051524;28;20040;-70
2024/01/16 07:48:38;;;;;;;91.73;85.63;;;0.50;99.90;;;;;;5052070;28;20419;-70
2024/01/16 07:51:04;;;;;;;57.63;53.23;;;0.40;99.90;;;;;;5052517;28;20029;-71
2024/01/16 07:53:30;;;;;;;90.87;84.30;;;0.10;99.90;;;;;;5053841;28;20048;-70
2024/01/16 07:55:57;;;;;;;143.20;134.23;;;-0.10;99.90;;;;;;5053036;28;20034;-71
2024/01/16 07:58:23;;;;;;;254.80;239.83;;;-0.10;99.90;;;;;;5051428;28;20077;-70
2024/01/16 08:00:49;;;;;;;224.87;211.60;;;0.00;99.90;;;;;;5049717;28;20044;-71
2024/01/16 08:03:15;;;;;;;182.87;172.17;;;0.20;99.90;;;;;;5051535;28;20052;-71
2024/01/16 08:05:41;;;;;;;156.40;146.93;;;0.30;99.90;;;;;;5051540;28;20025;-71
2024/01/16 08:08:10;;;;;;;224.03;211.37;;;0.40;99.90;;;;;;5050972;28;20049;-71
2024/01/16 08:13:12;;;;;;;227.03;214.20;;;0.20;99.90;;;;;;4920953;22;19990;-72
2024/01/16 08:15:39;;;;;;;271.03;255.70;;;0.00;99.90;;;;;;5047079;28;20033;-73
2024/01/16 08:18:05;;;;;;;274.83;259.00;;;-0.10;99.90;;;;;;5044882;28;20030;-74
2024/01/16 08:20:31;;;;;;;275.20;259.53;;;0.00;99.90;;;;;;5047689;28;20037;-74
2024/01/16 08:22:57;;;;;;;168.07;158.23;;;0.00;99.90;;;;;;5039832;28;20390;-73
2024/01/16 08:25:24;;;;;;;171.73;161.43;;;0.10;99.90;;;;;;5045031;28;20033;-73
2024/01/16 08:27:50;;;;;;;157.13;148.07;;;0.00;99.90;;;;;;5033073;28;20387;-74
2024/01/16 08:30:16;;;;;;;160.40;150.77;;;-0.10;99.90;;;;;;5038887;28;20025;-73
2024/01/16 08:32:42;;;;;;;144.10;135.60;;;0.00;99.90;;;;;;5049415;28;20048;-74
2024/01/16 08:35:08;;;;;;;138.10;129.77;;;0.20;99.90;;;;;;5053127;28;20037;-74
2024/01/16 08:37:34;;;;;;;164.00;154.10;;;0.40;99.90;;;;;;5053078;28;20037;-72
2024/01/16 08:40:01;;;;;;;166.07;156.47;;;0.30;99.90;;;;;;5049253;28;20387;-74
2024/01/16 08:42:27;;;;;;;171.57;161.43;;;0.40;99.90;;;;;;5052470;28;20467;-73
2024/01/16 08:44:53;;;;;;;202.60;190.97;;;0.30;99.90;;;;;;5039868;28;20045;-73
2024/01/16 08:47:19;;;;;;;124.87;117.50;;;0.50;99.90;;;;;;5037788;28;20103;-73
2024/01/16 08:49:45;;;;;;;113.33;106.43;;;0.50;99.90;;;;;;5031844;28;20041;-73
2024/01/16 08:52:11;;;;;;;61.50;56.80;;;0.70;99.90;;;;;;5037785;28;20037;-73
2024/01/16 08:54:37;;;;;;;72.37;67.10;;;0.30;99.90;;;;;;5038340;28;20479;-73
2024/01/16 08:57:04;;;;;;;74.47;68.90;;;0.20;99.90;;;;;;5051705;28;20017;-73
2024/01/16 08:59:30;;;;;;;65.20;60.70;;;0.10;99.90;;;;;;5050981;28;20025;-73
2024/01/16 09:01:56;;;;;;;88.10;82.77;;;0.10;99.90;;;;;;5042410;28;20368;-73
2024/01/16 09:04:22;;;;;;;84.53;78.83;;;0.00;99.90;;;;;;5042386;28;20048;-73
2024/01/16 09:06:48;;;;;;;117.17;109.60;;;0.10;99.90;;;;;;5046889;28;20394;-73
2024/01/16 09:09:15;;;;;;;83.23;77.47;;;0.30;99.90;;;;;;5045265;28;20029;-73
2024/01/16 09:11:42;;;;;;;94.90;88.87;;;0.40;99.90;;;;;;5046177;28;20033;-73
2024/01/16 09:14:08;;;;;;;85.67;80.47;;;0.50;99.90;;;;;;5038974;28;20041;-73
2024/01/16 09:16:35;;;;;;;64.50;60.13;;;0.50;99.90;;;;;;5044494;28;20060;-73
2024/01/16 09:19:01;;;;;;;54.57;50.63;;;0.40;99.90;;;;;;5037493;28;20037;-74
2024/01/16 09:21:28;;;;;;;72.50;67.60;;;0.40;99.90;;;;;;5043139;28;20046;-73
2024/01/16 09:23:54;;;;;;;43.80;40.50;;;0.30;99.90;;;;;;5045254;28;20041;-73
2024/01/16 09:26:20;;;;;;;52.83;48.80;;;0.40;99.90;;;;;;5040812;28;20021;-73
2024/01/16 09:28:46;;;;;;;81.73;76.13;;;0.40;99.90;;;;;;5043587;28;20029;-74
2024/01/16 09:31:14;;;;;;;67.30;63.10;;;0.60;99.90;;;;;;5040101;28;20486;-73
2024/01/16 09:33:40;;;;;;;48.30;44.77;;;0.60;99.90;;;;;;5050493;28;20383;-73
2024/01/16 09:36:06;;;;;;;62.80;58.50;;;0.60;99.90;;;;;;5037933;28;20032;-73
2024/01/16 09:38:32;;;;;;;137.40;129.63;;;0.70;99.90;;;;;;5049793;28;20486;-74
2024/01/16 09:40:59;;;;;;;97.73;91.93;;;0.70;99.90;;;;;;5038926;28;20017;-73
2024/01/16 09:43:28;;;;;;;117.77;110.33;;;0.70;99.90;;;;;;5046508;28;20068;-70
2024/01/16 09:45:55;;;;;;;120.17;112.87;;;0.80;99.90;;;;;;5035649;28;20037;-70
2024/01/16 09:48:21;;;;;;;115.70;108.73;;;1.10;99.90;;;;;;5040238;28;20145;-73
2024/01/16 09:50:47;;;;;;;142.17;133.87;;;1.30;99.90;;;;;;5045064;28;20038;-73
2024/01/16 09:53:13;;;;;;;53.77;49.80;;;1.20;99.90;;;;;;5041198;28;20033;-73
2024/01/16 09:55:40;;;;;;;100.27;94.57;;;1.10;99.90;;;;;;5038147;28;20056;-73
2024/01/16 09:58:06;;;;;;;126.70;119.63;;;1.10;99.90;;;;;;5049043;28;20047;-73
2024/01/16 10:00:32;;;;;;;87.77;82.73;;;1.20;99.90;;;;;;5034990;28;20029;-73
2024/01/16 10:02:58;;;;;;;150.20;142.50;;;1.20;99.90;;;;;;5048474;28;20033;-74
2024/01/16 10:05:25;;;;;;;65.87;61.47;;;1.20;99.90;;;;;;5031633;28;20040;-74
2024/01/16 10:07:51;;;;;;;40.47;37.20;;;1.20;99.90;;;;;;5034503;28;20045;-73
2024/01/16 10:10:19;;;;;;;47.43;44.27;;;1.30;99.90;;;;;;5041154;28;20033;-74
2024/01/16 10:12:45;;;;;;;141.23;133.20;;;1.40;99.90;;;;;;5033509;28;20498;-74
2024/01/16 10:15:11;;;;;;;110.07;103.00;;;1.50;99.90;;;;;;5046847;28;20071;-74
2024/01/16 10:17:43;;;;;;;66.43;61.93;;;1.60;99.90;;;;;;5032730;28;20386;-73
2024/01/16 10:20:13;;;;;;;41.93;39.47;;;1.60;99.90;;;;;;5037865;28;20402;-73
2024/01/16 10:22:40;;;;;;;88.33;83.20;;;1.60;99.90;;;;;;5050723;28;20025;-73
2024/01/16 10:25:16;;;;;;;167.70;158.43;;;1.70;99.90;;;;;;5046794;28;20049;-74
2024/01/16 10:27:42;;;;;;;50.87;47.40;;;1.80;99.90;;;;;;5031019;28;20044;-73
2024/01/16 10:30:10;;;;;;;40.00;37.57;;;1.90;99.90;;;;;;5037139;28;20038;-73
2024/01/16 10:32:37;;;;;;;44.90;42.07;;;1.90;99.90;;;;;;5050749;28;20049;-74
2024/01/16 10:35:10;;;;;;;48.90;45.70;;;2.00;99.90;;;;;;5050029;28;20061;-73
2024/01/16 10:37:50;;;;;;;37.60;35.53;;;2.00;99.90;;;;;;5031636;28;20365;-74
2024/01/16 10:40:16;;;;;;;72.20;67.40;;;1.90;99.90;;;;;;5045748;28;20048;-73
2024/01/16 10:42:44;;;;;;;79.87;74.73;;;1.90;99.90;;;;;;5050093;28;20025;-73
2024/01/16 10:45:20;;;;;;;57.67;53.60;;;2.00;99.90;;;;;;5042626;28;20037;-73
2024/01/16 10:47:46;;;;;;;43.33;40.40;;;2.00;99.90;;;;;;5050570;28;20033;-74
2024/01/16 10:50:13;;;;;;;66.00;61.27;;;2.10;99.90;;;;;;5048984;28;20041;-74
2024/01/16 10:52:48;;;;;;;67.73;63.40;;;2.20;99.90;;;;;;5055136;28;20063;-73
2024/01/16 10:55:24;;;;;;;61.63;57.93;;;2.40;99.90;;;;;;5042873;28;20052;-73
2024/01/16 10:57:50;;;;;;;41.60;38.63;;;2.30;99.90;;;;;;5069670;28;20044;-73
2024/01/16 11:00:21;;;;;;;69.63;65.27;;;2.40;99.90;;;;;;5043736;28;20391;-74
2024/01/16 11:03:04;;;;;;;105.63;98.85;;;2.50;99.90;;;;;;5051619;28;20052;-73
2024/01/16 11:05:33;;;;;;;139.23;131.57;;;2.60;99.90;;;;;;5037888;28;20045;-74
2024/01/16 11:08:01;;;;;;;139.70;131.97;;;2.70;99.90;;;;;;5035562;28;20514;-74
2024/01/16 11:10:27;;;;;;;53.17;49.93;;;2.70;99.90;;;;;;5043348;28;20041;-73
2024/01/16 11:12:53;;;;;;;79.67;74.87;;;2.80;99.90;;;;;;5036366;28;20037;-73
2024/01/16 11:15:19;;;;;;;74.17;69.70;;;2.90;99.90;;;;;;5035469;28;20025;-74
2024/01/16 11:17:46;;;;;;;45.97;42.53;;;2.90;99.90;;;;;;5034963;28;20467;-73
2024/01/16 11:20:14;;;;;;;93.97;88.43;;;2.90;99.90;;;;;;5046523;28;20352;-73
2024/01/16 11:22:41;;;;;;;66.37;62.10;;;3.00;99.90;;;;;;5052281;28;20045;-74
2024/01/16 11:25:11;;;;;;;64.47;60.37;;;3.10;99.90;;;;;;5038954;28;20041;-74
2024/01/16 11:27:38;;;;;;;49.77;46.47;;;3.20;99.90;;;;;;5046174;28;20029;-73
2024/01/16 11:30:09;;;;;;;55.50;51.87;;;3.30;99.90;;;;;;5043828;28;20037;-73
2024/01/16 11:32:36;;;;;;;1999.90;999.90;;;3.30;99.90;;;;;;5053986;28;20036;-74
2024/01/16 11:35:08;;;;;;;1999.90;999.90;;;3.40;99.90;;;;;;5037740;28;20034;-74
2024/01/16 11:37:36;;;;;;;1999.90;999.90;;;3.40;99.90;;;;;;5032979;28;20475;-74
2024/01/16 11:40:23;;;;;;;1999.90;999.90;;;3.50;99.90;;;;;;5035858;28;20060;-74
2024/01/16 11:42:55;;;;;;;1999.90;999.90;;;3.60;99.90;;;;;;5034213;28;20042;-73
2024/01/16 11:45:30;;;;;;;1999.90;999.90;;;3.60;99.90;;;;;;5050660;28;21130;-74
2024/01/16 11:48:12;;;;;;;1999.90;999.90;;;3.70;99.90;;;;;;5053452;28;20104;-74
2024/01/16 11:50:39;;;;;;;1999.90;999.90;;;3.70;99.90;;;;;;5043523;28;20483;-74
2024/01/16 11:53:05;;;;;;;1999.90;999.90;;;3.80;99.90;;;;;;5053760;28;20044;-74
2024/01/16 11:55:41;;;;;;;1999.90;999.90;;;3.90;99.90;;;;;;5052595;28;20051;-73
2024/01/16 11:58:10;;;;;;;1999.90;999.90;;;4.00;99.90;;;;;;5052499;28;20052;-74
2024/01/16 12:00:36;;;;;;;1999.90;999.90;;;4.10;99.90;;;;;;5049020;28;20040;-74
2024/01/16 12:03:05;;;;;;;1999.90;999.90;;;4.10;99.90;;;;;;5035194;28;20021;-73
2024/01/16 12:05:32;;;;;;;1999.90;999.90;;;4.10;99.90;;;;;;5036669;28;20049;-74
2024/01/16 12:07:58;;;;;;;1999.90;999.90;;;4.10;99.90;;;;;;5047402;28;20040;-74
2024/01/16 12:10:24;;;;;;;1999.90;999.90;;;4.20;99.90;;;;;;5035832;28;20052;-73
2024/01/16 12:12:51;;;;;;;1999.90;999.90;;;4.30;99.90;;;;;;5053467;28;20414;-73
2024/01/16 12:15:18;;;;;;;1999.90;999.90;;;4.10;99.90;;;;;;5037364;28;20025;-74
2024/01/16 12:17:54;;;;;;;1999.90;999.90;;;4.20;99.90;;;;;;5051652;28;20410;-74
2024/01/16 12:20:21;;;;;;;1999.90;999.90;;;4.30;99.90;;;;;;5046089;28;20033;-74
2024/01/16 12:23:14;;;;;;;1999.90;999.90;;;4.30;99.90;;;;;;5053334;28;20037;-74
2024/01/16 12:25:40;;;;;;;1999.90;999.90;;;4.30;99.90;;;;;;5048297;28;20041;-74